createdAt,value
2019-05-25T00:02:09.277Z,8.63
2019-05-25T00:04:37.736Z,7.53
2019-05-25T00:07:06.470Z,7.90
2019-05-25T00:09:34.891Z,7.28
2019-05-25T00:12:03.494Z,7.37
2019-05-25T00:14:32.095Z,7.62
2019-05-25T00:17:00.663Z,7.35
2019-05-25T00:19:29.253Z,8.18
2019-05-25T00:21:57.819Z,7.90
2019-05-25T00:24:26.403Z,7.72
2019-05-25T00:26:54.893Z,7.35
2019-05-25T00:29:23.422Z,7.42
2019-05-25T00:31:52.770Z,7.28
2019-05-25T00:34:21.350Z,7.55
2019-05-25T00:36:49.926Z,7.50
2019-05-25T00:39:18.398Z,7.12
2019-05-25T00:41:46.878Z,7.17
2019-05-25T00:44:15.455Z,7.83
2019-05-25T00:46:43.942Z,6.50
2019-05-25T00:49:12.457Z,6.55
2019-05-25T00:51:41.667Z,7.35
2019-05-25T00:54:10.110Z,6.97
2019-05-25T00:56:38.754Z,6.70
2019-05-25T00:59:07.475Z,6.20
2019-05-25T01:01:35.883Z,6.30
2019-05-25T01:04:04.553Z,6.20
2019-05-25T01:06:33.060Z,7.22
2019-05-25T01:09:01.550Z,7.67
2019-05-25T01:11:30.037Z,7.60
2019-05-25T01:13:58.511Z,6.67
2019-05-25T01:16:26.986Z,7.30
2019-05-25T01:18:55.467Z,7.20
2019-05-25T01:21:23.894Z,7.00
2019-05-25T01:23:52.398Z,7.70
2019-05-25T01:26:20.954Z,7.70
2019-05-25T01:28:49.546Z,8.13
2019-05-25T01:31:17.985Z,8.88
2019-05-25T01:33:46.527Z,8.33
2019-05-25T01:36:15.042Z,8.58
2019-05-25T01:38:43.881Z,9.28
2019-05-25T01:41:12.361Z,11.05
2019-05-25T01:43:40.907Z,10.72
2019-05-25T01:46:09.474Z,11.60
2019-05-25T01:48:37.927Z,11.33
2019-05-25T01:51:06.471Z,12.82
2019-05-25T01:53:35.051Z,13.75
2019-05-25T01:56:03.587Z,13.00
2019-05-25T01:58:32.059Z,13.00
2019-05-25T02:01:00.574Z,12.30
2019-05-25T02:03:29.032Z,12.78
2019-05-25T02:05:57.540Z,12.55
2019-05-25T02:08:25.984Z,12.35
2019-05-25T02:10:54.499Z,14.15
2019-05-25T02:13:23.006Z,14.40
2019-05-25T02:15:51.629Z,15.10
2019-05-25T02:18:20.126Z,15.48
2019-05-25T02:20:48.578Z,16.17
2019-05-25T02:23:17.013Z,16.62
2019-05-25T02:25:45.603Z,16.25
2019-05-25T02:28:14.085Z,15.65
2019-05-25T02:30:42.641Z,17.27
2019-05-25T02:33:11.119Z,18.07
2019-05-25T02:35:39.687Z,17.50
2019-05-25T02:38:08.184Z,16.97
2019-05-25T02:40:36.646Z,16.70
2019-05-25T02:43:05.237Z,16.87
2019-05-25T02:45:33.846Z,14.10
2019-05-25T02:48:02.395Z,14.10
2019-05-25T02:50:30.826Z,13.28
2019-05-25T02:52:59.359Z,13.45
2019-05-25T02:55:34.354Z,14.13
2019-05-25T02:57:57.999Z,15.10
2019-05-25T03:00:33.926Z,18.67
2019-05-25T03:03:03.157Z,18.12
2019-05-25T03:05:31.647Z,17.82
2019-05-25T03:08:00.421Z,18.77
2019-05-25T03:10:29.314Z,18.85
2019-05-25T03:12:59.605Z,19.62
2019-05-25T03:15:28.048Z,20.35
2019-05-25T03:17:56.565Z,18.37
2019-05-25T03:20:25.019Z,20.65
2019-05-25T03:22:53.506Z,20.25
2019-05-25T03:25:22.011Z,20.90
2019-05-25T03:27:50.534Z,22.82
2019-05-25T03:30:22.077Z,21.85
2019-05-25T03:32:50.542Z,21.25
2019-05-25T03:35:18.963Z,21.30
2019-05-25T03:37:47.445Z,22.07
2019-05-25T03:40:15.943Z,24.50
2019-05-25T03:42:44.633Z,21.50
2019-05-25T03:45:13.195Z,24.12
2019-05-25T03:47:41.717Z,23.83
2019-05-25T03:50:10.343Z,24.37
2019-05-25T03:52:38.803Z,23.73
2019-05-25T03:55:07.434Z,23.27
2019-05-25T03:57:35.919Z,24.47
2019-05-25T04:00:08.687Z,22.93
2019-05-25T04:02:37.167Z,21.93
2019-05-25T04:05:06.290Z,22.35
2019-05-25T04:07:34.756Z,22.77
2019-05-25T04:10:03.871Z,21.75
2019-05-25T04:12:32.457Z,21.52
2019-05-25T04:15:00.994Z,22.40
2019-05-25T04:17:29.480Z,20.43
2019-05-25T04:19:57.994Z,20.10
2019-05-25T04:22:26.427Z,19.35
2019-05-25T04:24:54.916Z,20.27
2019-05-25T04:27:23.345Z,23.55
2019-05-25T04:29:51.858Z,26.77
2019-05-25T04:32:20.508Z,26.12
2019-05-25T04:34:49.057Z,23.35
2019-05-25T04:37:17.570Z,23.05
2019-05-25T04:39:46.048Z,21.05
2019-05-25T04:42:14.587Z,19.50
2019-05-25T04:44:43.057Z,18.75
2019-05-25T04:47:26.135Z,16.40
2019-05-25T04:49:41.718Z,17.12
2019-05-25T04:52:10.166Z,16.75
2019-05-25T04:54:38.867Z,16.00
2019-05-25T04:57:07.513Z,16.10
2019-05-25T04:59:35.934Z,16.48
2019-05-25T05:02:04.646Z,14.80
2019-05-25T05:04:33.200Z,15.65
2019-05-25T05:07:01.680Z,15.75
2019-05-25T05:09:30.183Z,15.95
2019-05-25T05:11:58.735Z,14.28
2019-05-25T05:14:27.221Z,14.18
2019-05-25T05:16:55.702Z,14.73
2019-05-25T05:19:24.161Z,14.43
2019-05-25T05:21:52.647Z,14.55
2019-05-25T05:24:21.097Z,14.73
2019-05-25T05:26:55.606Z,14.58
2019-05-25T05:29:20.034Z,15.53
2019-05-25T05:31:48.591Z,15.15
2019-05-25T05:34:17.037Z,18.37
2019-05-25T05:36:45.998Z,19.12
2019-05-25T05:39:15.315Z,21.02
2019-05-25T05:41:45.994Z,23.65
2019-05-25T05:44:16.013Z,25.27
2019-05-25T05:46:46.693Z,25.17
2019-05-25T05:49:15.604Z,23.55
2019-05-25T05:51:47.191Z,20.80
2019-05-25T05:54:16.824Z,18.90
2019-05-25T05:56:45.334Z,17.98
2019-05-25T05:59:13.840Z,18.37
2019-05-25T06:01:42.664Z,17.70
2019-05-25T06:04:11.303Z,16.12
2019-05-25T06:06:39.758Z,14.60
2019-05-25T06:09:08.584Z,15.98
2019-05-25T06:11:37.094Z,13.80
2019-05-25T06:14:06.088Z,15.43
2019-05-25T06:16:34.596Z,13.40
2019-05-25T06:19:03.112Z,14.07
2019-05-25T06:21:31.580Z,15.30
2019-05-25T06:24:00.147Z,15.88
2019-05-25T06:26:28.651Z,15.50
2019-05-25T06:28:57.265Z,14.65
2019-05-25T06:31:25.866Z,15.38
2019-05-25T06:33:54.440Z,15.93
2019-05-25T06:36:22.899Z,15.78
2019-05-25T06:38:51.475Z,16.85
2019-05-25T06:41:20.052Z,13.78
2019-05-25T06:43:48.549Z,13.80
2019-05-25T06:46:17.188Z,14.33
2019-05-25T06:48:46.006Z,13.95
2019-05-25T06:51:14.593Z,12.65
2019-05-25T06:53:44.593Z,13.03
2019-05-25T06:56:13.050Z,12.05
2019-05-25T06:58:41.477Z,13.28
2019-05-25T07:01:09.994Z,11.95
2019-05-25T07:03:38.529Z,11.65
2019-05-25T07:06:07.068Z,12.47
2019-05-25T07:08:35.510Z,11.85
2019-05-25T07:11:04.167Z,10.40
2019-05-25T07:13:32.786Z,11.33
2019-05-25T07:16:01.409Z,11.70
2019-05-25T07:18:29.995Z,12.25
2019-05-25T07:20:58.487Z,10.53
2019-05-25T07:23:26.981Z,9.95
2019-05-25T07:25:55.565Z,10.23
2019-05-25T07:28:24.027Z,9.75
2019-05-25T07:30:55.395Z,10.53
2019-05-25T07:33:23.985Z,10.90
2019-05-25T07:35:52.474Z,10.25
2019-05-25T07:38:21.075Z,10.50
2019-05-25T07:40:52.814Z,10.13
2019-05-25T07:43:21.384Z,9.88
2019-05-25T07:45:49.865Z,9.33
2019-05-25T07:48:18.380Z,9.38
2019-05-25T07:50:46.835Z,10.93
2019-05-25T07:53:15.436Z,10.40
2019-05-25T07:55:43.971Z,9.38
2019-05-25T07:58:17.311Z,9.48
2019-05-25T08:00:42.706Z,9.93
2019-05-25T08:03:12.179Z,9.63
2019-05-25T08:05:40.819Z,10.48
2019-05-25T08:08:09.337Z,10.90
2019-05-25T08:10:37.863Z,11.75
2019-05-25T08:13:06.364Z,11.20
2019-05-25T08:15:34.837Z,9.93
2019-05-25T08:18:03.309Z,10.95
2019-05-25T08:20:31.802Z,12.60
2019-05-25T08:23:00.243Z,11.28
2019-05-25T08:25:28.830Z,10.95
2019-05-25T08:27:57.326Z,10.70
2019-05-25T08:30:25.822Z,10.65
2019-05-25T08:32:54.347Z,9.23
2019-05-25T08:35:22.997Z,9.43
2019-05-25T08:37:51.530Z,10.50
2019-05-25T08:40:20.105Z,10.25
2019-05-25T08:42:48.558Z,9.15
2019-05-25T08:45:17.454Z,8.73
2019-05-25T08:47:46.063Z,9.18
2019-05-25T08:50:15.104Z,9.73
2019-05-25T08:52:43.635Z,9.78
2019-05-25T08:55:12.542Z,10.53
2019-05-25T08:57:41.192Z,9.15
2019-05-25T09:00:11.187Z,9.58
2019-05-25T09:02:39.675Z,9.43
2019-05-25T09:05:08.611Z,8.95
2019-05-25T09:07:37.258Z,9.00
2019-05-25T09:10:07.404Z,8.50
2019-05-25T09:12:35.989Z,8.28
2019-05-25T09:15:06.709Z,9.38
2019-05-25T09:17:35.310Z,10.08
2019-05-25T09:20:06.107Z,10.45
2019-05-25T09:22:34.797Z,9.03
2019-05-25T09:25:04.423Z,9.85
2019-05-25T09:27:32.924Z,10.05
2019-05-25T09:30:01.375Z,9.85
2019-05-25T09:32:30.071Z,9.28
2019-05-25T09:34:58.602Z,9.65
2019-05-25T09:37:27.088Z,8.18
2019-05-25T09:39:55.588Z,8.50
2019-05-25T09:42:24.179Z,9.10
2019-05-25T09:44:52.764Z,9.78
2019-05-25T09:47:21.321Z,10.20
2019-05-25T09:49:49.808Z,8.55
2019-05-25T09:52:18.618Z,9.58
2019-05-25T09:54:47.147Z,9.53
2019-05-25T09:57:15.699Z,9.15
2019-05-25T09:59:44.774Z,7.67
2019-05-25T10:02:13.285Z,7.62
2019-05-25T10:04:41.760Z,8.40
2019-05-25T10:07:10.208Z,8.15
2019-05-25T10:09:40.133Z,9.03
2019-05-25T10:12:08.924Z,8.00
2019-05-25T10:14:37.427Z,8.18
2019-05-25T10:17:06.116Z,8.98
2019-05-25T10:19:35.868Z,8.85
2019-05-25T10:22:05.311Z,8.95
2019-05-25T10:24:33.864Z,8.85
2019-05-25T10:27:02.418Z,9.38
2019-05-25T10:29:37.074Z,8.00
2019-05-25T10:32:01.545Z,7.67
2019-05-25T10:34:30.404Z,9.03
2019-05-25T10:36:58.850Z,8.28
2019-05-25T10:39:27.408Z,8.90
2019-05-25T10:41:55.898Z,8.70
2019-05-25T10:44:24.510Z,7.10
2019-05-25T10:46:53.123Z,7.90
2019-05-25T10:49:23.316Z,7.50
2019-05-25T10:51:51.898Z,8.58
2019-05-25T10:54:21.200Z,9.18
2019-05-25T10:56:49.691Z,9.90
2019-05-25T10:59:18.366Z,10.53
2019-05-25T11:01:46.885Z,10.30
2019-05-25T11:04:15.424Z,10.82
2019-05-25T11:06:43.928Z,9.43
2019-05-25T11:09:12.948Z,9.55
2019-05-25T11:11:41.489Z,8.28
2019-05-25T11:14:10.175Z,8.35
2019-05-25T11:16:38.829Z,8.08
2019-05-25T11:19:07.824Z,8.00
2019-05-25T11:21:36.331Z,8.40
2019-05-25T11:24:05.365Z,8.35
2019-05-25T11:26:33.906Z,8.80
2019-05-25T11:29:02.725Z,8.23
2019-05-25T11:31:31.343Z,9.80
2019-05-25T11:33:59.887Z,8.48
2019-05-25T11:36:28.335Z,9.88
2019-05-25T11:38:56.805Z,8.35
2019-05-25T11:41:25.300Z,8.13
2019-05-25T11:43:54.005Z,8.05
2019-05-25T11:46:22.411Z,7.42
2019-05-25T11:48:50.948Z,8.58
2019-05-25T11:51:19.592Z,8.15
2019-05-25T11:53:48.252Z,8.50
2019-05-25T11:56:16.745Z,8.45
2019-05-25T11:58:47.732Z,9.73
2019-05-25T12:01:15.886Z,7.37
2019-05-25T12:03:44.487Z,7.40
2019-05-25T12:06:12.937Z,8.08
2019-05-25T12:08:42.781Z,8.55
2019-05-25T12:11:11.278Z,8.45
2019-05-25T12:13:39.863Z,8.50
2019-05-25T12:16:08.447Z,7.35
2019-05-25T12:18:37.066Z,6.85
2019-05-25T12:21:05.754Z,5.20
2019-05-25T12:23:34.348Z,4.78
2019-05-25T12:26:02.919Z,3.55
2019-05-25T12:28:31.659Z,2.70
2019-05-25T12:31:03.026Z,2.52
2019-05-25T12:33:31.862Z,3.00
2019-05-25T12:36:02.640Z,2.90
2019-05-25T12:38:31.182Z,3.00
2019-05-25T12:40:59.662Z,3.40
2019-05-25T12:43:28.151Z,2.90
2019-05-25T12:45:56.583Z,2.35
2019-05-25T12:48:25.016Z,2.40
2019-05-25T12:50:53.459Z,2.05
2019-05-25T12:53:22.037Z,1.60
2019-05-25T12:55:50.488Z,1.82
2019-05-25T12:58:18.963Z,1.40
2019-05-25T13:00:55.612Z,1.37
2019-05-25T13:03:17.632Z,1.17
2019-05-25T13:05:46.106Z,1.35
2019-05-25T13:08:14.575Z,1.07
2019-05-25T13:10:43.055Z,1.20
2019-05-25T13:13:11.495Z,1.20
2019-05-25T13:15:39.994Z,1.30
2019-05-25T13:18:08.428Z,1.20
2019-05-25T13:20:36.876Z,1.25
2019-05-25T13:23:05.599Z,1.10
2019-05-25T13:25:34.173Z,1.20
2019-05-25T13:28:02.588Z,1.20
2019-05-25T13:30:31.042Z,1.02
2019-05-25T13:32:59.543Z,1.00
2019-05-25T13:35:28.135Z,0.90
2019-05-25T13:37:56.645Z,1.10
2019-05-25T13:40:25.096Z,1.30
2019-05-25T13:42:53.515Z,1.22
2019-05-25T13:45:22.223Z,1.57
2019-05-25T13:47:50.689Z,1.77
2019-05-25T13:50:19.423Z,1.50
2019-05-25T13:52:47.881Z,1.30
2019-05-25T13:55:16.576Z,1.40
2019-05-25T13:57:45.045Z,1.40
2019-05-25T14:00:14.120Z,2.05
2019-05-25T14:02:42.642Z,1.60
2019-05-25T14:05:11.181Z,1.60
2019-05-25T14:07:39.701Z,1.50
2019-05-25T14:10:08.791Z,1.20
2019-05-25T14:12:37.210Z,2.12
2019-05-25T14:15:07.614Z,1.67
2019-05-25T14:17:36.140Z,1.60
2019-05-25T14:20:05.943Z,1.50
2019-05-25T14:22:34.441Z,1.22
2019-05-25T14:25:03.263Z,1.30
2019-05-25T14:27:31.792Z,1.30
2019-05-25T14:30:00.267Z,1.45
2019-05-25T14:32:28.781Z,1.50
2019-05-25T14:34:57.219Z,1.50
2019-05-25T14:37:25.799Z,1.80
2019-05-25T14:39:54.394Z,1.45
2019-05-25T14:42:22.933Z,1.50
2019-05-25T14:44:51.436Z,1.60
2019-05-25T14:47:19.950Z,1.80
2019-05-25T14:49:48.446Z,1.30
2019-05-25T14:52:17.060Z,1.27
2019-05-25T14:54:45.568Z,1.25
2019-05-25T14:57:14.355Z,1.62
2019-05-25T14:59:42.906Z,1.25
2019-05-25T15:02:11.488Z,1.50
2019-05-25T15:04:40.037Z,2.40
2019-05-25T15:07:08.568Z,1.15
2019-05-25T15:09:37.131Z,3.52
2019-05-25T15:12:05.714Z,1.50
2019-05-25T15:14:34.304Z,1.52
2019-05-25T15:17:02.812Z,2.30
2019-05-25T15:19:31.287Z,1.40
2019-05-25T15:21:59.973Z,1.72
2019-05-25T15:24:28.582Z,2.00
2019-05-25T15:26:57.091Z,3.10
2019-05-25T15:29:25.554Z,7.20
2019-05-25T15:31:53.987Z,4.35
2019-05-25T15:34:22.491Z,7.40
2019-05-25T15:36:51.022Z,7.95
2019-05-25T15:39:19.489Z,4.30
2019-05-25T15:41:47.966Z,7.10
2019-05-25T15:44:16.594Z,2.85
2019-05-25T15:46:45.237Z,5.22
2019-05-25T15:49:13.833Z,2.00
2019-05-25T15:51:42.289Z,2.15
2019-05-25T15:54:10.960Z,2.25
2019-05-25T15:56:39.689Z,2.08
2019-05-25T15:59:08.191Z,1.82
2019-05-25T16:01:36.783Z,1.98
2019-05-25T16:04:05.396Z,1.87
2019-05-25T16:06:33.989Z,2.50
2019-05-25T16:09:02.921Z,2.20
2019-05-25T16:11:32.298Z,1.98
2019-05-25T16:14:01.037Z,1.60
2019-05-25T16:16:30.202Z,1.92
2019-05-25T16:18:59.031Z,1.92
2019-05-25T16:21:27.567Z,2.30
2019-05-25T16:23:56.223Z,2.15
2019-05-25T16:26:24.885Z,2.05
2019-05-25T16:28:53.414Z,1.95
2019-05-25T16:31:22.056Z,1.92
2019-05-25T16:33:50.485Z,1.98
2019-05-25T16:36:19.014Z,1.95
2019-05-25T16:38:47.466Z,2.22
2019-05-25T16:41:15.949Z,1.98
2019-05-25T16:43:44.491Z,2.17
2019-05-25T16:46:13.011Z,2.50
2019-05-25T16:48:41.474Z,2.35
2019-05-25T16:51:10.040Z,2.50
2019-05-25T16:53:38.542Z,2.65
2019-05-25T16:56:06.999Z,2.47
2019-05-25T16:58:35.554Z,2.47
2019-05-25T17:01:04.141Z,2.55
2019-05-25T17:03:32.571Z,2.37
2019-05-25T17:06:01.295Z,2.40
2019-05-25T17:08:29.770Z,2.60
2019-05-25T17:10:58.248Z,2.65
2019-05-25T17:13:26.766Z,2.42
2019-05-25T17:15:55.289Z,2.40
2019-05-25T17:18:23.803Z,2.55
2019-05-25T17:20:52.378Z,2.47
2019-05-25T17:23:20.787Z,2.55
2019-05-25T17:25:49.219Z,2.40
2019-05-25T17:28:17.706Z,2.42
2019-05-25T17:30:46.800Z,2.65
2019-05-25T17:33:15.356Z,2.85
2019-05-25T17:35:44.638Z,2.58
2019-05-25T17:38:13.246Z,2.72
2019-05-25T17:40:41.851Z,2.60
2019-05-25T17:43:10.393Z,2.60
2019-05-25T17:45:38.900Z,2.80
2019-05-25T17:48:07.546Z,2.12
2019-05-25T17:50:36.131Z,2.80
2019-05-25T17:53:04.832Z,2.65
2019-05-25T17:55:33.299Z,2.87
2019-05-25T17:58:01.898Z,3.10
2019-05-25T18:00:46.250Z,2.87
2019-05-25T18:03:14.799Z,2.80
2019-05-25T18:05:43.280Z,3.77
2019-05-25T18:08:11.869Z,3.83
2019-05-25T18:10:52.238Z,3.87
2019-05-25T18:13:10.590Z,3.90
2019-05-25T18:15:39.033Z,4.17
2019-05-25T18:18:08.035Z,3.77
2019-05-25T18:20:36.526Z,4.30
2019-05-25T18:23:05.485Z,11.38
2019-05-25T18:25:33.971Z,5.80
2019-05-25T18:28:02.573Z,4.40
2019-05-25T18:30:31.108Z,4.20
2019-05-25T18:32:59.719Z,4.90
2019-05-25T18:35:28.246Z,4.60
2019-05-25T18:37:56.756Z,4.83
2019-05-25T18:40:25.355Z,4.83
2019-05-25T18:42:53.994Z,4.55
2019-05-25T18:45:22.610Z,5.50
2019-05-25T18:47:51.246Z,4.95
2019-05-25T18:50:20.087Z,5.10
2019-05-25T18:52:48.870Z,4.85
2019-05-25T18:55:17.934Z,4.87
2019-05-25T18:57:46.510Z,4.30
2019-05-25T19:00:15.491Z,4.67
2019-05-25T19:02:44.080Z,3.75
2019-05-25T19:05:14.436Z,11.65
2019-05-25T19:07:42.996Z,6.05
2019-05-25T19:10:12.051Z,4.33
2019-05-25T19:12:40.546Z,4.67
2019-05-25T19:15:09.690Z,4.70
2019-05-25T19:17:38.433Z,4.92
2019-05-25T19:20:08.016Z,5.17
2019-05-25T19:22:36.557Z,4.45
2019-05-25T19:25:08.404Z,4.75
2019-05-25T19:27:36.982Z,3.95
2019-05-25T19:30:07.852Z,4.97
2019-05-25T19:32:36.676Z,4.60
2019-05-25T19:35:07.510Z,4.72
2019-05-25T19:37:36.213Z,4.50
2019-05-25T19:40:09.543Z,3.98
2019-05-25T19:42:38.360Z,4.42
2019-05-25T19:45:10.049Z,4.67
2019-05-25T19:47:38.827Z,4.80
2019-05-25T19:50:11.307Z,5.10
2019-05-25T19:52:40.782Z,4.55
2019-05-25T19:55:09.563Z,4.08
2019-05-25T19:57:38.426Z,4.17
2019-05-25T20:00:11.133Z,3.80
2019-05-25T20:02:39.830Z,4.40
2019-05-25T20:05:16.476Z,3.75
2019-05-25T20:07:39.826Z,4.42
2019-05-25T20:10:11.883Z,4.37
2019-05-25T20:12:40.603Z,5.17
2019-05-25T20:15:09.804Z,5.00
2019-05-25T20:17:38.595Z,5.00
2019-05-25T20:20:07.793Z,4.40
2019-05-25T20:22:36.371Z,4.70
2019-05-25T20:25:08.632Z,5.15
2019-05-25T20:27:37.191Z,4.97
2019-05-25T20:30:09.102Z,5.10
2019-05-25T20:32:37.748Z,5.40
2019-05-25T20:35:09.849Z,4.78
2019-05-25T20:37:39.232Z,4.65
2019-05-25T20:40:09.272Z,4.15
2019-05-25T20:42:38.105Z,4.50
2019-05-25T20:45:08.534Z,4.20
2019-05-25T20:47:37.215Z,4.30
2019-05-25T20:50:09.329Z,4.03
2019-05-25T20:52:38.017Z,4.03
2019-05-25T20:55:07.447Z,4.53
2019-05-25T20:57:36.188Z,4.45
2019-05-25T21:00:06.202Z,4.35
2019-05-25T21:02:35.803Z,4.05
2019-05-25T21:05:06.955Z,4.40
2019-05-25T21:07:37.248Z,4.53
2019-05-25T21:10:09.977Z,4.33
2019-05-25T21:12:38.825Z,4.45
2019-05-25T21:15:09.022Z,4.33
2019-05-25T21:17:37.638Z,4.20
2019-05-25T21:20:07.635Z,4.22
2019-05-25T21:22:56.252Z,6.28
2019-05-25T21:25:27.292Z,10.15
2019-05-25T21:27:56.006Z,5.10
2019-05-25T21:30:24.710Z,6.75
2019-05-25T21:32:53.789Z,5.05
2019-05-25T21:35:22.627Z,5.37
2019-05-25T21:37:51.395Z,4.12
2019-05-25T21:40:20.004Z,5.50
2019-05-25T21:42:48.743Z,5.45
2019-05-25T21:45:17.466Z,4.85
2019-05-25T21:47:46.118Z,4.70
2019-05-25T21:50:15.157Z,5.65
2019-05-25T21:52:43.793Z,5.22
2019-05-25T21:55:12.602Z,5.00
2019-05-25T21:57:41.354Z,4.92
2019-05-25T22:00:14.470Z,4.53
2019-05-25T22:02:43.218Z,5.00
2019-05-25T22:05:12.264Z,5.12
2019-05-25T22:07:40.903Z,5.70
2019-05-25T22:10:09.746Z,5.42
2019-05-25T22:12:40.180Z,5.85
2019-05-25T22:15:10.589Z,5.42
2019-05-25T22:17:39.501Z,5.25
2019-05-25T22:20:08.500Z,5.22
2019-05-25T22:22:37.320Z,5.58
2019-05-25T22:25:09.619Z,5.20
2019-05-25T22:27:38.257Z,4.83
2019-05-25T22:30:10.023Z,4.80
2019-05-25T22:32:38.654Z,4.37
2019-05-25T22:35:07.678Z,4.37
2019-05-25T22:37:36.294Z,5.20
2019-05-25T22:40:11.778Z,4.72
2019-05-25T22:42:40.289Z,4.53
2019-05-25T22:45:09.259Z,4.50
2019-05-25T22:47:37.959Z,4.67
2019-05-25T22:50:08.174Z,5.35
2019-05-25T22:52:38.368Z,4.87
2019-05-25T22:55:07.361Z,4.95
2019-05-25T22:57:35.963Z,4.70
2019-05-25T23:00:07.899Z,5.05
2019-05-25T23:02:36.449Z,4.37
2019-05-25T23:05:07.437Z,4.72
2019-05-25T23:07:36.038Z,4.47
2019-05-25T23:10:09.197Z,4.70
2019-05-25T23:12:38.190Z,5.05
2019-05-25T23:15:09.287Z,4.60
2019-05-25T23:17:38.031Z,4.97
2019-05-25T23:20:09.636Z,4.47
2019-05-25T23:22:38.115Z,5.15
2019-05-25T23:25:07.507Z,5.28
2019-05-25T23:27:36.002Z,5.05
2019-05-25T23:30:06.087Z,4.65
2019-05-25T23:32:35.106Z,4.90
2019-05-25T23:35:04.236Z,4.70
2019-05-25T23:37:32.779Z,5.30
2019-05-25T23:40:01.347Z,5.78
2019-05-25T23:42:29.818Z,5.30
2019-05-25T23:44:58.344Z,4.67
2019-05-25T23:47:26.895Z,4.75
2019-05-25T23:49:58.847Z,4.90
2019-05-25T23:52:25.707Z,5.33
2019-05-25T23:54:54.228Z,4.67
2019-05-25T23:57:22.705Z,5.08
2019-05-25T23:59:51.247Z,5.03
